Terminal Aerodrome Forecast
Issued by NWS Charleston, WV

Current Version | Previous Version | Graphics & Text | Print | Product List | Glossary On
Versions: 1 2 3 4 5 6 7 8 9 10 11 12 13 14 15 16 17 18 19 20 21 22 23 24 25
149
FTUS41 KRLX 222050 AAB
TAFCRW
TAF AMD
KCRW 222050Z 2221/2318 11007KT P6SM SCT025 BKN090 BKN120
     FM230300 06005KT 4SM -SHRA OVC015
     FM230800 04004KT 2SM SHRA BR BKN007 OVC012
     FM231400 03006KT 1 1/2SM -RA BR OVC007=

USA.gov is the U.S. government's official web portal to all federal, state and local government web resources and services.